Time;durP1;ratioP1;P1;durP2;ratioP2;P2;SDS_P1;SDS_P2;PMS_P1;PMS_P2;Temp;Humidity;BMP_temperature;BMP_pressure;BME280_temperature;BME280_humidity;BME280_pressure;Samples;Min_cycle;Max_cycle;Signal;HPM_P1;HPM_P2
2022/07/22 00:00:59;;;;;;;7.68;3.80;;;;;;;26.74;43.41;94994.66;4982634;28;20034;-51
2022/07/22 00:03:24;;;;;;;5.57;3.83;;;;;;;26.72;43.45;95002.69;4982479;28;20115;-54
2022/07/22 00:05:50;;;;;;;8.38;3.60;;;;;;;26.66;43.31;94999.31;4982725;28;20034;-50
2022/07/22 00:08:15;;;;;;;7.68;4.00;;;;;;;26.61;43.54;94997.44;4960161;28;20487;-52
2022/07/22 00:10:41;;;;;;;6.90;3.65;;;;;;;26.61;43.92;95002.94;4978195;28;20462;-52
2022/07/22 00:13:07;;;;;;;6.25;3.40;;;;;;;26.47;43.69;94990.50;4981741;28;20040;-54
2022/07/22 00:15:32;;;;;;;6.88;3.95;;;;;;;26.49;43.63;94990.72;4973480;28;20023;-51
2022/07/22 00:17:58;;;;;;;6.07;3.95;;;;;;;26.47;43.78;95004.19;4977895;28;20516;-53
2022/07/22 00:20:23;;;;;;;7.65;3.92;;;;;;;26.37;43.80;95005.91;4982214;28;20026;-54
2022/07/22 00:22:49;;;;;;;6.93;3.90;;;;;;;26.34;44.19;95007.72;4982123;28;20027;-53
2022/07/22 00:25:14;;;;;;;8.70;4.53;;;;;;;26.36;43.84;95004.44;4982160;28;20022;-55
2022/07/22 00:27:40;;;;;;;7.18;4.00;;;;;;;26.35;43.54;95002.97;4981836;28;20302;-53
2022/07/22 00:30:06;;;;;;;7.78;3.67;;;;;;;26.31;44.08;95002.56;4980881;28;20057;-55
2022/07/22 00:32:31;;;;;;;7.00;3.80;;;;;;;26.34;43.62;95013.19;4981691;28;20089;-56
2022/07/22 00:34:57;;;;;;;8.55;4.05;;;;;;;26.32;43.74;95004.00;4964822;28;20113;-56
2022/07/22 00:37:22;;;;;;;5.65;3.70;;;;;;;26.29;44.05;95013.28;4981896;28;20038;-56
2022/07/22 00:39:48;;;;;;;6.78;4.13;;;;;;;26.21;44.34;95004.22;4964754;28;20022;-52
2022/07/22 00:42:14;;;;;;;7.45;3.88;;;;;;;26.25;44.24;95026.53;4981820;28;20019;-54
2022/07/22 00:44:40;;;;;;;6.97;3.90;;;;;;;26.15;44.29;95009.06;4982598;28;20026;-54
2022/07/22 00:47:05;;;;;;;7.10;4.15;;;;;;;26.11;44.38;95011.38;4981229;28;20272;-53
2022/07/22 00:49:31;;;;;;;6.82;3.97;;;;;;;26.17;44.63;95020.22;4982470;28;20564;-53
2022/07/22 00:51:57;;;;;;;7.05;4.40;;;;;;;26.07;44.38;95013.72;4982020;28;20387;-52
2022/07/22 00:54:22;;;;;;;5.82;4.10;;;;;;;26.13;44.60;95019.81;4984783;28;20038;-52
2022/07/22 00:56:47;;;;;;;6.85;3.92;;;;;;;26.07;44.55;95013.72;4984495;28;20131;-52
2022/07/22 00:59:13;;;;;;;6.00;3.80;;;;;;;26.06;44.69;95014.97;4985878;28;20030;-52
2022/07/22 01:01:39;;;;;;;6.78;3.70;;;;;;;26.04;44.77;95012.03;4984993;28;20030;-54
2022/07/22 01:04:04;;;;;;;6.97;3.95;;;;;;;25.99;44.70;95021.09;4984391;28;20565;-52
2022/07/22 01:06:30;;;;;;;5.78;3.70;;;;;;;25.98;45.01;95018.88;4985142;28;20571;-55
2022/07/22 01:08:56;;;;;;;6.63;3.78;;;;;;;25.94;44.81;95002.75;4985403;28;20030;-55
2022/07/22 01:11:21;;;;;;;5.78;4.20;;;;;;;25.89;44.98;95005.59;4985058;28;20500;-55
2022/07/22 01:13:47;;;;;;;6.72;3.97;;;;;;;25.88;44.85;95010.31;4985437;28;20030;-55
2022/07/22 01:16:13;;;;;;;6.88;3.67;;;;;;;25.89;45.02;95017.28;4975168;28;20014;-52
2022/07/22 01:18:39;;;;;;;8.30;4.20;;;;;;;25.80;45.55;95008.75;4984226;28;20560;-52
2022/07/22 01:21:05;;;;;;;4.82;3.70;;;;;;;25.74;45.73;95008.13;4984584;28;20054;-53
2022/07/22 01:23:30;;;;;;;8.68;3.88;;;;;;;25.75;45.60;95019.78;4984845;28;20030;-53
2022/07/22 01:25:56;;;;;;;5.85;3.85;;;;;;;25.75;45.78;95017.06;4967760;28;20042;-52
2022/07/22 01:28:22;;;;;;;6.53;3.80;;;;;;;25.72;45.82;95018.09;4984370;28;20022;-55
2022/07/22 01:30:49;;;;;;;5.60;3.63;;;;;;;25.70;45.55;95020.63;4948351;28;20109;-54
2022/07/22 01:33:18;;;;;;;6.57;4.05;;;;;;;25.63;45.68;95011.00;4980182;28;20038;-54
2022/07/22 01:35:44;;;;;;;6.13;3.80;;;;;;;25.67;45.76;95010.75;4985139;28;20057;-53
2022/07/22 01:38:09;;;;;;;7.18;4.07;;;;;;;25.58;45.70;95009.13;4984156;28;20061;-55
2022/07/22 01:40:35;;;;;;;5.30;3.85;;;;;;;25.62;45.29;95014.25;4984425;28;20080;-51
2022/07/22 01:43:00;;;;;;;7.15;3.90;;;;;;;25.54;45.13;94997.00;4984569;28;20037;-52
2022/07/22 01:45:26;;;;;;;9.15;5.10;;;;;;;25.56;45.24;95016.34;4984234;28;20034;-50
2022/07/22 01:47:52;;;;;;;6.18;4.18;;;;;;;25.55;45.37;95015.63;4952674;28;20077;-55
2022/07/22 01:50:17;;;;;;;6.10;4.43;;;;;;;25.57;45.10;95012.38;4983245;28;20744;-53
2022/07/22 01:52:43;;;;;;;6.88;3.75;;;;;;;25.47;45.23;95008.56;4984047;28;20065;-53
2022/07/22 01:55:08;;;;;;;7.53;3.92;;;;;;;25.50;45.61;95021.19;4984236;28;20061;-54
2022/07/22 01:57:35;;;;;;;6.32;4.00;;;;;;;25.37;45.63;94999.31;4983799;28;20026;-52
2022/07/22 02:00:00;;;;;;;7.20;3.70;;;;;;;25.45;45.47;95016.56;4983732;28;20096;-54
2022/07/22 02:02:26;;;;;;;7.13;4.35;;;;;;;25.41;45.72;95010.66;4966585;28;20018;-50
2022/07/22 02:04:51;;;;;;;10.05;4.22;;;;;;;25.42;45.21;95018.31;4983057;28;20057;-54
2022/07/22 02:07:17;;;;;;;6.22;4.15;;;;;;;25.33;45.39;95009.78;4983867;28;20026;-52
2022/07/22 02:09:42;;;;;;;5.30;3.75;;;;;;;25.39;45.47;95018.66;4984356;28;20551;-54
2022/07/22 02:12:08;;;;;;;6.10;3.95;;;;;;;25.37;45.45;95021.16;4983789;28;20034;-55
2022/07/22 02:14:33;;;;;;;8.10;4.20;;;;;;;25.29;45.63;95011.34;4969096;28;20174;-53
2022/07/22 02:16:59;;;;;;;5.70;3.75;;;;;;;25.35;45.73;95029.91;4974870;28;20517;-51
2022/07/22 02:19:24;;;;;;;6.63;3.90;;;;;;;25.25;45.57;95019.88;4984320;28;20210;-52
2022/07/22 02:21:50;;;;;;;7.07;4.00;;;;;;;25.29;45.71;95036.72;4983572;28;20520;-52
2022/07/22 02:24:16;;;;;;;7.13;3.33;;;;;;;25.27;45.94;95033.75;4984110;28;20034;-54
2022/07/22 02:26:41;;;;;;;7.45;3.78;;;;;;;25.21;45.68;95030.38;4983284;28;20694;-55
2022/07/22 02:29:07;;;;;;;6.35;4.05;;;;;;;25.15;45.75;95031.72;4984148;28;20643;-52
2022/07/22 02:31:32;;;;;;;6.53;3.60;;;;;;;25.17;45.75;95035.41;4983060;28;20034;-55
2022/07/22 02:33:58;;;;;;;9.48;4.30;;;;;;;25.16;46.21;95033.94;4984054;28;20030;-51
2022/07/22 02:36:23;;;;;;;6.72;3.70;;;;;;;25.17;46.16;95037.38;4983482;28;20517;-52
2022/07/22 02:38:48;;;;;;;5.00;3.40;;;;;;;25.14;46.20;95041.91;4983612;28;20049;-52
2022/07/22 02:41:14;;;;;;;6.38;3.90;;;;;;;25.04;46.59;95027.16;4982879;28;20473;-54
2022/07/22 02:43:40;;;;;;;6.35;4.10;;;;;;;25.01;46.14;95027.47;4983647;28;20093;-52
2022/07/22 02:46:05;;;;;;;8.13;4.00;;;;;;;24.99;46.48;95019.78;4983483;28;20041;-51
2022/07/22 02:48:30;;;;;;;8.50;4.53;;;;;;;25.07;46.67;95037.03;4983082;28;20069;-50
2022/07/22 02:50:56;;;;;;;6.15;4.03;;;;;;;25.07;46.69;95031.59;4983080;28;20065;-51
2022/07/22 02:53:21;;;;;;;7.90;3.78;;;;;;;25.00;46.49;95029.44;4982650;28;20030;-52
2022/07/22 02:55:47;;;;;;;6.82;4.00;;;;;;;24.95;46.73;95027.50;4980081;28;20089;-54
2022/07/22 02:58:12;;;;;;;5.72;3.45;;;;;;;24.94;46.98;95034.22;4974624;28;20034;-54
2022/07/22 03:00:38;;;;;;;5.22;4.03;;;;;;;24.97;47.33;95032.47;4983040;28;20570;-52
2022/07/22 03:03:04;;;;;;;8.45;3.85;;;;;;;24.90;46.92;95022.88;4982801;28;20583;-55
2022/07/22 03:05:29;;;;;;;6.95;4.10;;;;;;;24.91;47.09;95035.25;4965308;28;20030;-53
2022/07/22 03:07:55;;;;;;;5.75;3.80;;;;;;;24.85;47.31;95026.41;4965588;28;20097;-51
2022/07/22 03:10:21;;;;;;;6.13;4.22;;;;;;;24.87;47.59;95029.38;4983361;28;20556;-51
2022/07/22 03:12:46;;;;;;;6.40;3.50;;;;;;;24.83;47.54;95028.94;4982384;28;20106;-52
2022/07/22 03:15:12;;;;;;;6.22;4.00;;;;;;;24.83;47.43;95025.47;4976292;28;20536;-53
2022/07/22 03:17:37;;;;;;;7.20;4.50;;;;;;;24.78;47.47;95020.06;4979456;28;20034;-54
2022/07/22 03:20:04;;;;;;;6.75;3.88;;;;;;;24.78;47.72;95025.53;4983051;28;20101;-54
2022/07/22 03:22:30;;;;;;;7.13;3.90;;;;;;;24.63;47.96;95006.13;4964876;28;20062;-53
2022/07/22 03:24:55;;;;;;;5.43;3.85;;;;;;;24.78;47.75;95033.72;4982636;28;20122;-54
2022/07/22 03:27:21;;;;;;;9.48;4.13;;;;;;;24.73;47.79;95023.63;4982705;28;20026;-52
2022/07/22 03:29:46;;;;;;;8.23;4.10;;;;;;;24.75;47.77;95027.28;4982788;28;20484;-52
2022/07/22 03:32:11;;;;;;;8.70;4.60;;;;;;;24.78;47.90;95031.00;4982239;28;20500;-54
2022/07/22 03:34:37;;;;;;;7.38;4.03;;;;;;;24.67;47.85;95020.22;4983003;28;20116;-54
2022/07/22 03:37:03;;;;;;;5.45;3.63;;;;;;;24.71;47.78;95042.50;4982102;28;20053;-54
2022/07/22 03:39:28;;;;;;;5.95;4.00;;;;;;;24.68;48.04;95027.16;4965455;28;20054;-55
2022/07/22 03:41:54;;;;;;;7.20;4.10;;;;;;;24.70;48.08;95035.59;4982251;28;20026;-55
2022/07/22 03:44:19;;;;;;;7.03;4.10;;;;;;;24.73;47.95;95038.00;4977297;28;20031;-51
2022/07/22 03:46:45;;;;;;;7.82;4.80;;;;;;;24.69;48.20;95043.03;4962443;28;20033;-50
2022/07/22 03:49:10;;;;;;;5.60;3.97;;;;;;;24.72;48.25;95055.63;4965306;28;20594;-53
2022/07/22 03:51:36;;;;;;;7.18;4.50;;;;;;;24.66;48.11;95046.78;4965770;28;20038;-53
2022/07/22 03:54:01;;;;;;;8.48;4.18;;;;;;;24.66;48.27;95051.50;4965540;28;20391;-52
2022/07/22 03:56:27;;;;;;;6.82;4.40;;;;;;;24.60;48.72;95042.66;4963888;28;20027;-53
2022/07/22 03:58:52;;;;;;;8.02;4.50;;;;;;;24.64;48.51;95059.50;4962974;28;20035;-53
2022/07/22 04:01:18;;;;;;;6.90;4.47;;;;;;;24.63;48.61;95058.75;4964022;28;20601;-51
2022/07/22 04:03:43;;;;;;;8.90;4.78;;;;;;;24.69;48.48;95055.94;4966230;28;20232;-53
2022/07/22 04:06:09;;;;;;;7.47;4.63;;;;;;;24.69;48.57;95072.31;4966544;28;20490;-53
2022/07/22 04:08:34;;;;;;;8.02;4.70;;;;;;;24.65;48.74;95060.94;4961291;28;20065;-55
2022/07/22 04:11:00;;;;;;;6.20;4.20;;;;;;;24.68;48.69;95065.38;4962331;28;20034;-53
2022/07/22 04:13:25;;;;;;;7.05;4.75;;;;;;;24.64;48.58;95059.50;4969603;28;20351;-53
2022/07/22 04:15:51;;;;;;;7.28;4.53;;;;;;;24.69;48.83;95066.88;4970345;28;20031;-53
2022/07/22 04:18:17;;;;;;;8.70;4.65;;;;;;;24.71;48.69;95075.28;4980567;28;20476;-53
2022/07/22 04:20:43;;;;;;;7.57;4.55;;;;;;;24.67;48.52;95059.19;4965067;28;20741;-49
2022/07/22 04:23:08;;;;;;;9.32;4.65;;;;;;;24.65;48.46;95060.94;4981477;28;20109;-51
2022/07/22 04:25:34;;;;;;;9.30;5.18;;;;;;;24.63;48.75;95058.00;4982526;28;20554;-52
2022/07/22 04:27:59;;;;;;;9.02;4.80;;;;;;;24.72;49.10;95076.75;4983662;28;20034;-50
2022/07/22 04:30:25;;;;;;;7.40;4.55;;;;;;;24.73;48.36;95080.97;4973297;28;20058;-52
2022/07/22 04:32:51;;;;;;;8.38;4.95;;;;;;;24.80;48.28;95077.63;4981696;28;20038;-53
2022/07/22 04:35:16;;;;;;;6.28;4.75;;;;;;;24.84;48.13;95079.56;4985922;28;20042;-52
2022/07/22 04:37:42;;;;;;;8.63;4.85;;;;;;;24.88;48.03;95080.00;4968066;28;20034;-52
2022/07/22 04:40:08;;;;;;;9.13;5.15;;;;;;;24.86;48.05;95077.06;4984194;28;20042;-56
2022/07/22 04:42:33;;;;;;;8.63;5.00;;;;;;;24.91;48.11;95078.25;4965187;28;20043;-51
2022/07/22 04:44:59;;;;;;;7.60;4.85;;;;;;;24.83;47.89;95069.91;4967403;28;20209;-51
2022/07/22 04:47:24;;;;;;;9.65;4.85;;;;;;;24.96;48.07;95086.38;4965166;28;20031;-54
2022/07/22 04:49:50;;;;;;;11.32;4.85;;;;;;;24.99;47.70;95090.81;4966502;28;20026;-54
2022/07/22 04:52:15;;;;;;;9.98;4.70;;;;;;;24.98;47.81;95089.31;4964986;28;20066;-52
2022/07/22 04:54:41;;;;;;;9.98;5.20;;;;;;;25.05;47.61;95096.97;4964009;28;20027;-55
2022/07/22 04:57:06;;;;;;;8.38;5.13;;;;;;;25.07;47.84;95102.63;4964998;28;20513;-51
2022/07/22 04:59:32;;;;;;;7.30;5.60;;;;;;;25.00;47.73;95081.34;4967689;28;20549;-53
2022/07/22 05:01:57;;;;;;;8.70;5.38;;;;;;;25.14;47.47;95095.81;4963685;28;20030;-55
2022/07/22 05:04:23;;;;;;;8.18;5.00;;;;;;;25.14;47.52;95091.13;4950676;28;20086;-53
2022/07/22 05:06:48;;;;;;;10.55;5.30;;;;;;;25.13;46.97;95100.56;4967800;28;20067;-53
2022/07/22 05:09:14;;;;;;;9.13;5.00;;;;;;;25.16;47.32;95099.53;4965514;28;20720;-52
2022/07/22 05:11:39;;;;;;;10.57;4.55;;;;;;;25.12;46.72;95082.69;4968586;28;20058;-52
2022/07/22 05:14:05;;;;;;;9.00;4.97;;;;;;;25.16;46.61;95083.13;4955288;28;20078;-51
2022/07/22 05:16:30;;;;;;;8.02;4.82;;;;;;;25.25;46.61;95085.47;4971140;28;20045;-55
2022/07/22 05:18:56;;;;;;;12.65;5.43;;;;;;;25.44;46.09;95091.63;4985261;28;20065;-53
2022/07/22 05:21:21;;;;;;;6.00;4.93;;;;;;;25.52;45.79;95084.31;4983921;28;20302;-54
2022/07/22 05:23:47;;;;;;;7.88;4.82;;;;;;;25.64;45.57;95093.81;4965979;28;20061;-52
2022/07/22 05:26:12;;;;;;;9.40;5.40;;;;;;;25.79;45.31;95105.03;4965122;28;20037;-52
2022/07/22 05:28:38;;;;;;;10.05;4.88;;;;;;;25.95;44.77;95097.28;4965116;28;20053;-54
2022/07/22 05:31:03;;;;;;;9.25;4.60;;;;;;;26.08;44.32;95089.06;4963144;28;20038;-52
2022/07/22 05:33:29;;;;;;;9.77;5.15;;;;;;;26.18;44.15;95098.34;4962263;28;20075;-52
2022/07/22 05:35:54;;;;;;;9.80;4.30;;;;;;;26.32;43.75;95097.13;4951019;28;20046;-54
2022/07/22 05:38:20;;;;;;;11.65;5.75;;;;;;;26.57;43.05;95101.13;4964734;28;20094;-59
2022/07/22 05:40:45;;;;;;;7.78;4.53;;;;;;;26.66;43.11;95092.47;4963620;28;20058;-55
2022/07/22 05:43:11;;;;;;;9.70;5.05;;;;;;;26.84;42.54;95087.56;4963104;28;20045;-54
2022/07/22 05:45:36;;;;;;;11.02;5.00;;;;;;;27.05;42.03;95102.09;4967845;28;20041;-54
2022/07/22 05:48:02;;;;;;;9.88;5.03;;;;;;;27.16;42.09;95101.88;4972475;28;20512;-55
2022/07/22 05:50:28;;;;;;;6.35;5.07;;;;;;;27.30;41.68;95100.56;4966136;28;20027;-55
2022/07/22 05:52:53;;;;;;;10.00;4.78;;;;;;;27.50;41.33;95108.09;4963376;28;20536;-54
2022/07/22 05:55:19;;;;;;;10.30;5.95;;;;;;;27.54;41.56;95086.56;4964354;28;20027;-58
2022/07/22 05:57:44;;;;;;;7.85;4.75;;;;;;;27.67;41.05;95089.22;4976978;28;20050;-53
2022/07/22 06:00:10;;;;;;;9.10;6.03;;;;;;;27.71;41.49;95078.66;4984102;28;20034;-53
2022/07/22 06:02:36;;;;;;;9.85;5.75;;;;;;;27.94;40.78;95086.56;4966868;28;20015;-55
2022/07/22 06:05:02;;;;;;;9.05;5.00;;;;;;;28.13;40.48;95087.09;4977314;28;20355;-55
2022/07/22 06:07:27;;;;;;;10.02;4.95;;;;;;;28.21;40.06;95090.63;4982674;28;20191;-52
2022/07/22 06:09:53;;;;;;;8.57;5.22;;;;;;;28.32;39.90;95095.81;4982928;28;20034;-54
2022/07/22 06:12:19;;;;;;;10.73;5.30;;;;;;;28.37;40.65;95089.44;4983139;28;20486;-54
2022/07/22 06:14:46;;;;;;;9.77;5.13;;;;;;;28.52;40.46;95100.50;4980867;28;20343;-57
2022/07/22 06:17:11;;;;;;;11.40;5.22;;;;;;;28.61;39.75;95097.25;4973002;28;20031;-54
2022/07/22 06:19:37;;;;;;;12.27;5.35;;;;;;;28.75;39.87;95102.88;4971945;28;20066;-57
2022/07/22 06:22:02;;;;;;;7.10;4.95;;;;;;;28.84;39.36;95099.59;4980425;28;20613;-54
2022/07/22 06:24:28;;;;;;;7.97;4.80;;;;;;;28.88;39.08;95097.25;4983542;28;20089;-54
2022/07/22 06:26:53;;;;;;;7.85;4.30;;;;;;;28.94;39.38;95102.59;4969739;28;20035;-56
2022/07/22 06:29:19;;;;;;;8.85;5.40;;;;;;;28.97;39.07;95096.75;4975316;28;20532;-52
2022/07/22 06:31:44;;;;;;;10.18;5.13;;;;;;;29.09;39.35;95103.38;4981421;28;20030;-56
2022/07/22 06:34:10;;;;;;;9.85;4.70;;;;;;;29.22;38.95;95103.22;4964080;28;20026;-56
2022/07/22 06:36:35;;;;;;;10.65;4.70;;;;;;;29.25;38.75;95088.41;4964722;28;20038;-50
2022/07/22 06:39:01;;;;;;;7.38;4.13;;;;;;;29.33;39.08;95094.69;4967260;28;20022;-51
2022/07/22 06:41:26;;;;;;;11.52;5.10;;;;;;;29.31;39.12;95091.72;4976800;28;20717;-53
2022/07/22 06:43:52;;;;;;;12.35;4.40;;;;;;;29.42;39.03;95097.63;4979174;28;20405;-53
2022/07/22 06:46:17;;;;;;;9.93;4.78;;;;;;;29.44;38.63;95099.84;4975880;28;20754;-51
2022/07/22 06:48:43;;;;;;;9.27;5.10;;;;;;;29.60;37.99;95104.09;4972755;28;20110;-52
2022/07/22 06:51:08;;;;;;;8.50;5.20;;;;;;;29.57;37.94;95094.91;4974671;28;20709;-54
2022/07/22 06:53:34;;;;;;;8.32;4.70;;;;;;;29.70;37.75;95098.25;4983259;28;20096;-51
2022/07/22 06:55:59;;;;;;;8.15;4.38;;;;;;;29.78;38.08;95101.00;4972456;28;20438;-50
2022/07/22 06:58:25;;;;;;;8.63;4.93;;;;;;;29.71;37.98;95096.94;4976253;28;20465;-51
2022/07/22 07:00:50;;;;;;;8.30;4.53;;;;;;;29.76;37.73;95098.78;4964835;28;20050;-54
2022/07/22 07:03:16;;;;;;;8.60;4.20;;;;;;;29.78;37.86;95101.00;4963356;28;20030;-54
2022/07/22 07:05:41;;;;;;;8.40;4.20;;;;;;;29.80;37.43;95099.19;4966729;28;20430;-53
2022/07/22 07:08:07;;;;;;;9.35;4.50;;;;;;;29.82;38.35;95096.63;4963927;28;20499;-53
2022/07/22 07:10:32;;;;;;;6.35;4.32;;;;;;;29.88;37.86;95110.94;4966595;28;20142;-51
2022/07/22 07:12:58;;;;;;;6.05;3.92;;;;;;;29.94;37.62;95094.97;4969139;28;20603;-51
2022/07/22 07:15:27;;;;;;;11.43;4.40;;;;;;;29.96;37.83;95089.66;4965623;28;20073;-53
2022/07/22 07:17:53;;;;;;;7.20;4.05;;;;;;;30.01;38.10;95096.97;4968309;28;20030;-52
2022/07/22 07:20:19;;;;;;;8.48;4.60;;;;;;;30.05;37.74;95102.88;4965236;28;20027;-52
2022/07/22 07:22:44;;;;;;;7.78;4.18;;;;;;;30.07;37.48;95100.28;4974902;28;20058;-52
2022/07/22 07:25:10;;;;;;;6.82;4.30;;;;;;;30.04;38.01;95095.88;4967046;28;20066;-51
2022/07/22 07:27:36;;;;;;;8.10;4.40;;;;;;;30.15;37.54;95111.31;4967013;28;20050;-52
2022/07/22 07:30:05;;;;;;;8.15;4.68;;;;;;;30.16;37.52;95099.72;4966220;28;20030;-52
2022/07/22 07:32:30;;;;;;;8.43;4.25;;;;;;;30.24;37.60;95108.75;4966229;28;20034;-55
2022/07/22 07:34:56;;;;;;;8.15;4.10;;;;;;;30.23;37.19;95096.25;4967501;28;20089;-53
2022/07/22 07:37:21;;;;;;;8.70;4.60;;;;;;;30.25;37.75;95093.66;4973743;28;20460;-53
2022/07/22 07:39:47;;;;;;;5.65;3.80;;;;;;;30.28;37.74;95103.56;4982649;28;20038;-51
2022/07/22 07:42:12;;;;;;;7.38;4.05;;;;;;;30.33;37.04;95094.41;4982961;28;20103;-53
2022/07/22 07:44:38;;;;;;;7.57;4.13;;;;;;;30.33;37.34;95094.41;4982864;28;20033;-54
2022/07/22 07:47:04;;;;;;;7.00;4.00;;;;;;;30.34;37.46;95095.88;4983005;28;20038;-54
2022/07/22 07:49:29;;;;;;;6.30;4.00;;;;;;;30.29;37.30;95088.53;4982552;28;20026;-54
2022/07/22 07:51:55;;;;;;;5.43;3.92;;;;;;;30.40;37.19;95093.66;4982432;28;20124;-52
2022/07/22 07:54:20;;;;;;;7.13;4.18;;;;;;;30.39;37.17;95092.22;4983275;28;20023;-52
2022/07/22 07:56:46;;;;;;;5.88;4.15;;;;;;;30.45;37.14;95101.75;4982883;28;20018;-53
2022/07/22 07:59:11;;;;;;;5.10;3.60;;;;;;;30.44;36.62;95091.28;4983369;28;20033;-51
2022/07/22 08:01:37;;;;;;;6.85;3.80;;;;;;;30.51;36.94;95098.78;4980087;28;20034;-52
2022/07/22 08:04:02;;;;;;;5.45;3.72;;;;;;;30.58;36.94;95098.03;4971006;28;20779;-56
2022/07/22 08:06:28;;;;;;;6.35;3.97;;;;;;;30.52;36.56;95095.47;4967005;28;20030;-57
2022/07/22 08:08:53;;;;;;;7.10;4.13;;;;;;;30.50;36.81;95091.81;4970083;28;20628;-53
2022/07/22 08:11:19;;;;;;;6.18;4.00;;;;;;;30.53;37.02;95096.22;4985656;28;20714;-53
2022/07/22 08:13:44;;;;;;;6.55;3.60;;;;;;;30.58;37.08;95093.25;4986609;28;20084;-54
2022/07/22 08:16:10;;;;;;;5.57;3.83;;;;;;;30.59;36.37;95099.53;4953159;28;20019;-52
2022/07/22 08:18:35;;;;;;;7.45;3.90;;;;;;;30.65;36.62;95102.81;4966889;28;20457;-54
2022/07/22 08:21:01;;;;;;;7.30;3.50;;;;;;;30.68;36.49;95096.91;4971961;28;20085;-51
2022/07/22 08:23:27;;;;;;;7.45;3.78;;;;;;;30.74;36.74;95100.94;4966188;28;20402;-51
2022/07/22 08:25:52;;;;;;;6.45;3.70;;;;;;;30.67;36.62;95085.16;4970136;28;20461;-52
2022/07/22 08:28:18;;;;;;;6.03;3.33;;;;;;;30.74;36.94;95089.91;4975658;28;20080;-51
2022/07/22 08:30:44;;;;;;;6.80;4.25;;;;;;;30.80;37.05;95086.94;4969805;28;20050;-51
2022/07/22 08:33:09;;;;;;;5.30;3.45;;;;;;;30.83;36.66;95094.84;4970128;28;20046;-51
2022/07/22 08:35:35;;;;;;;6.57;3.72;;;;;;;30.91;36.41;95098.34;4966827;28;20031;-52
2022/07/22 08:38:00;;;;;;;7.88;3.30;;;;;;;30.90;36.29;95098.91;4976119;28;20117;-51
2022/07/22 08:40:26;;;;;;;6.07;3.60;;;;;;;30.90;36.38;95099.63;4985156;28;20560;-53
2022/07/22 08:42:51;;;;;;;6.40;3.50;;;;;;;30.88;36.25;95093.94;4985860;28;20030;-51
2022/07/22 08:45:17;;;;;;;5.65;3.30;;;;;;;30.90;35.92;95096.16;4985520;28;20113;-51
2022/07/22 08:47:47;;;;;;;7.43;3.17;;;;;;;31.02;35.41;95097.22;4968289;28;20698;-52
2022/07/22 08:50:13;;;;;;;5.95;3.15;;;;;;;31.04;35.74;95100.88;4960736;28;20672;-54
2022/07/22 08:52:38;;;;;;;4.75;3.03;;;;;;;31.03;35.40;95099.41;4959543;28;20121;-55
2022/07/22 08:55:05;;;;;;;4.90;3.33;;;;;;;31.07;35.23;95099.75;4983550;28;20046;-51
2022/07/22 08:57:31;;;;;;;4.85;3.00;;;;;;;31.07;35.51;95102.50;4983573;28;20034;-51
2022/07/22 08:59:58;;;;;;;8.13;3.40;;;;;;;31.00;35.65;95094.25;4967645;28;20045;-55
2022/07/22 09:02:23;;;;;;;10.32;3.55;;;;;;;31.13;35.62;95103.03;4976929;28;20080;-52
2022/07/22 09:04:59;;;;;;;5.28;3.33;;;;;;;31.19;35.48;95106.31;4948021;28;20117;-50
2022/07/22 09:07:33;;;;;;;5.78;3.00;;;;;;;31.15;35.80;95100.44;4967270;28;20106;-51
2022/07/22 09:09:58;;;;;;;7.30;3.50;;;;;;;31.09;36.29;95091.66;4965604;28;20039;-50
2022/07/22 09:12:24;;;;;;;5.03;3.10;;;;;;;31.28;35.06;95097.44;4972306;28;20073;-54
2022/07/22 09:14:52;;;;;;;5.82;3.40;;;;;;;31.29;34.35;95096.16;4966435;28;20583;-53
2022/07/22 09:17:36;;;;;;;4.50;3.10;;;;;;;31.06;35.50;95103.81;4975093;28;20097;-51
2022/07/22 09:20:17;;;;;;;5.07;3.22;;;;;;;30.73;36.94;95105.00;4968295;28;20095;-54
2022/07/22 09:22:44;;;;;;;6.18;3.30;;;;;;;30.50;37.21;95105.59;4971551;28;20051;-52
2022/07/22 09:25:28;;;;;;;4.75;2.83;;;;;;;30.32;37.60;95101.91;4967072;28;20477;-55
2022/07/22 09:28:15;;;;;;;3.67;2.63;;;;;;;30.08;38.04;95101.03;4966241;28;20078;-52
2022/07/22 09:30:52;;;;;;;4.82;3.05;;;;;;;30.01;38.45;95101.75;4963716;28;20121;-50
2022/07/22 09:33:17;;;;;;;3.22;2.70;;;;;;;29.78;38.96;95101.72;4965317;28;20432;-51
2022/07/22 09:35:44;;;;;;;5.82;3.47;;;;;;;29.67;38.77;95111.63;4966613;28;20497;-53
2022/07/22 09:38:10;;;;;;;5.10;2.90;;;;;;;29.42;39.29;95088.66;4966761;28;20027;-51
2022/07/22 09:40:40;;;;;;;4.40;2.85;;;;;;;29.39;39.48;95103.50;4965203;28;20035;-53
2022/07/22 09:43:12;;;;;;;5.82;3.33;;;;;;;29.37;39.76;95103.31;4965078;28;20035;-50
2022/07/22 09:45:47;;;;;;;4.32;3.00;;;;;;;29.21;40.42;95105.25;4960608;28;20050;-52
2022/07/22 09:48:13;;;;;;;3.83;2.92;;;;;;;28.97;40.99;95091.25;4963497;28;20030;-52
2022/07/22 09:50:38;;;;;;;4.90;3.15;;;;;;;28.88;41.67;95105.50;4980386;28;20037;-52
2022/07/22 09:53:04;;;;;;;3.47;2.88;;;;;;;28.74;41.83;95084.91;4984072;28;20088;-52
2022/07/22 09:55:29;;;;;;;3.67;2.85;;;;;;;28.70;42.01;95091.28;4970747;28;20027;-54
2022/07/22 09:57:55;;;;;;;3.53;2.80;;;;;;;28.56;41.85;95081.66;4976717;28;20027;-51
2022/07/22 10:00:23;;;;;;;4.75;3.20;;;;;;;28.51;42.13;95088.78;4984061;28;20803;-55
2022/07/22 10:02:50;;;;;;;4.28;2.80;;;;;;;28.48;42.86;95091.91;4983196;28;20018;-52
2022/07/22 10:05:18;;;;;;;5.35;2.80;;;;;;;28.37;43.17;95083.94;4984222;28;20041;-55
2022/07/22 10:07:44;;;;;;;4.97;3.10;;;;;;;28.42;42.63;95085.81;4982491;28;20006;-52
2022/07/22 10:10:11;;;;;;;3.33;2.70;;;;;;;28.41;42.74;95084.34;4970796;28;20037;-51
2022/07/22 10:12:38;;;;;;;9.60;3.15;;;;;;;28.39;43.20;95092.38;4963804;28;20429;-51
2022/07/22 10:15:04;;;;;;;5.13;3.03;;;;;;;28.38;43.21;95085.41;4947865;28;20125;-54
2022/07/22 10:17:29;;;;;;;3.92;2.90;;;;;;;28.38;43.65;95079.91;4963270;28;20093;-53
2022/07/22 10:19:56;;;;;;;4.50;3.17;;;;;;;28.31;43.34;95075.09;4964594;28;20399;-51
2022/07/22 10:22:42;;;;;;;4.03;2.95;;;;;;;28.32;43.57;95076.59;4927970;28;20051;-53
2022/07/22 10:25:09;;;;;;;3.53;2.97;;;;;;;28.24;43.88;95081.31;4929508;28;20032;-55
2022/07/22 10:27:51;;;;;;;3.72;2.67;;;;;;;28.19;43.88;95073.94;4924967;29;20673;-52
2022/07/22 10:30:18;;;;;;;3.60;2.80;;;;;;;28.20;44.21;95064.41;4939212;28;20028;-55
2022/07/22 10:32:44;;;;;;;3.83;2.90;;;;;;;28.16;44.21;95069.53;4928208;29;20261;-54
2022/07/22 10:35:09;;;;;;;3.75;2.70;;;;;;;28.18;43.73;95071.75;4925778;29;20360;-54
2022/07/22 10:37:35;;;;;;;2.58;2.13;;;;;;;28.18;43.92;95072.47;4924688;29;20066;-53
2022/07/22 10:40:17;;;;;;;4.03;2.50;;;;;;;28.09;43.75;95085.97;4939031;29;20043;-53
2022/07/22 10:43:03;;;;;;;4.03;2.75;;;;;;;28.04;44.54;95079.31;4943203;29;20598;-52
2022/07/22 10:45:40;;;;;;;3.30;2.42;;;;;;;28.03;44.10;95077.84;4930234;28;20047;-55
2022/07/22 10:48:09;;;;;;;4.40;2.63;;;;;;;28.04;44.28;95067.56;4924503;29;20031;-56
2022/07/22 10:50:37;;;;;;;4.50;2.53;;;;;;;28.06;44.46;95060.28;4931164;29;20134;-53
2022/07/22 10:53:08;;;;;;;3.85;2.80;;;;;;;27.98;43.80;95066.97;4943011;28;20039;-53
2022/07/22 10:55:34;;;;;;;2.92;2.60;;;;;;;28.00;44.34;95067.94;4938784;28;20043;-57
2022/07/22 10:57:59;;;;;;;3.25;2.53;;;;;;;27.95;44.54;95057.84;4941526;29;20501;-54
2022/07/22 11:00:25;;;;;;;2.80;2.33;;;;;;;27.93;44.61;95063.09;4935429;28;20031;-53
2022/07/22 11:02:51;;;;;;;3.83;2.45;;;;;;;27.91;44.13;95062.91;4943680;29;20424;-53
2022/07/22 11:05:31;;;;;;;2.83;2.17;;;;;;;27.87;44.59;95065.25;4941921;28;20517;-58
2022/07/22 11:07:57;;;;;;;3.88;2.65;;;;;;;27.90;44.40;95058.69;4944122;29;20039;-56
2022/07/22 11:10:22;;;;;;;2.90;2.35;;;;;;;27.81;44.58;95061.91;4941022;28;20059;-55
2022/07/22 11:12:48;;;;;;;2.97;2.67;;;;;;;27.89;44.24;95061.97;4924234;29;20043;-53
2022/07/22 11:15:14;;;;;;;3.15;1.95;;;;;;;27.90;44.27;95058.69;4925485;29;20016;-52
2022/07/22 11:17:40;;;;;;;2.90;2.10;;;;;;;27.81;44.53;95050.94;4936504;29;20083;-54
2022/07/22 11:20:09;;;;;;;2.60;2.13;;;;;;;27.84;44.13;95055.34;4925259;29;20032;-52
2022/07/22 11:22:35;;;;;;;3.58;2.33;;;;;;;27.83;43.69;95048.41;4960620;28;20075;-53
2022/07/22 11:25:06;;;;;;;3.78;2.10;;;;;;;27.83;43.94;95047.66;4962300;28;20042;-57
2022/07/22 11:27:31;;;;;;;3.40;2.20;;;;;;;27.81;44.11;95056.44;4961708;28;20038;-55